sensor_id;sensor_type;location;lat;lon;timestamp;pressure;altitude;pressure_sealevel;temperature;humidity
44127;BME280;29786;50.798;7.302;2022-10-19T00:00:37;100370;;;10.21;100
44127;BME280;29786;50.798;7.302;2022-10-19T00:01:37;100370;;;10.14;100
44127;BME280;29786;50.798;7.302;2022-10-19T00:02:37;100370;;;10.09;100
44127;BME280;29786;50.798;7.302;2022-10-19T00:03:37;100370;;;10.02;100
44127;BME280;29786;50.798;7.302;2022-10-19T00:04:37;100370;;;9.97;100
44127;BME280;29786;50.798;7.302;2022-10-19T00:05:37;100370;;;9.96;100
44127;BME280;29786;50.798;7.302;2022-10-19T00:06:37;100370;;;9.93;100
44127;BME280;29786;50.798;7.302;2022-10-19T00:07:38;100370;;;9.97;100
44127;BME280;29786;50.798;7.302;2022-10-19T00:08:38;100370;;;9.97;100
44127;BME280;29786;50.798;7.302;2022-10-19T00:09:37;100370;;;10.01;100
44127;BME280;29786;50.798;7.302;2022-10-19T00:10:38;100370;;;10.05;100
44127;BME280;29786;50.798;7.302;2022-10-19T00:11:40;100360;;;10.05;100
44127;BME280;29786;50.798;7.302;2022-10-19T00:12:37;100360;;;10.08;100
44127;BME280;29786;50.798;7.302;2022-10-19T00:13:38;100360;;;10.01;100
44127;BME280;29786;50.798;7.302;2022-10-19T00:14:37;100360;;;9.93;100
44127;BME280;29786;50.798;7.302;2022-10-19T00:15:38;100360;;;9.88;100
44127;BME280;29786;50.798;7.302;2022-10-19T00:16:37;100360;;;9.96;100
44127;BME280;29786;50.798;7.302;2022-10-19T00:17:37;100360;;;10.06;100
44127;BME280;29786;50.798;7.302;2022-10-19T00:18:38;100360;;;10.08;100
44127;BME280;29786;50.798;7.302;2022-10-19T00:19:45;100360;;;10.05;100
44127;BME280;29786;50.798;7.302;2022-10-19T00:20:37;100360;;;10.04;100
44127;BME280;29786;50.798;7.302;2022-10-19T00:21:38;100360;;;10.02;100
44127;BME280;29786;50.798;7.302;2022-10-19T00:22:38;100350;;;9.99;100
44127;BME280;29786;50.798;7.302;2022-10-19T00:23:38;100350;;;9.95;100
44127;BME280;29786;50.798;7.302;2022-10-19T00:24:37;100350;;;9.89;100
44127;BME280;29786;50.798;7.302;2022-10-19T00:25:38;100350;;;9.81;100
44127;BME280;29786;50.798;7.302;2022-10-19T00:26:37;100350;;;9.75;100
44127;BME280;29786;50.798;7.302;2022-10-19T00:27:37;100350;;;9.77;100
44127;BME280;29786;50.798;7.302;2022-10-19T00:28:37;100350;;;9.72;100
44127;BME280;29786;50.798;7.302;2022-10-19T00:29:39;100350;;;9.71;100
44127;BME280;29786;50.798;7.302;2022-10-19T00:30:37;100350;;;9.64;100
44127;BME280;29786;50.798;7.302;2022-10-19T00:31:38;100350;;;9.64;100
44127;BME280;29786;50.798;7.302;2022-10-19T00:32:37;100350;;;9.6;100
44127;BME280;29786;50.798;7.302;2022-10-19T00:33:38;100350;;;9.63;100
44127;BME280;29786;50.798;7.302;2022-10-19T00:34:38;100350;;;9.68;100
44127;BME280;29786;50.798;7.302;2022-10-19T00:35:39;100350;;;9.67;100
44127;BME280;29786;50.798;7.302;2022-10-19T00:36:38;100350;;;9.68;100
44127;BME280;29786;50.798;7.302;2022-10-19T00:37:37;100350;;;9.7;100
44127;BME280;29786;50.798;7.302;2022-10-19T00:38:38;100350;;;9.81;100
44127;BME280;29786;50.798;7.302;2022-10-19T00:39:37;100350;;;9.76;100
44127;BME280;29786;50.798;7.302;2022-10-19T00:40:38;100350;;;9.71;100
44127;BME280;29786;50.798;7.302;2022-10-19T00:41:38;100350;;;9.77;100
44127;BME280;29786;50.798;7.302;2022-10-19T00:42:37;100350;;;9.77;100
44127;BME280;29786;50.798;7.302;2022-10-19T00:44:55;100350;;;9.71;100
44127;BME280;29786;50.798;7.302;2022-10-19T00:45:37;100350;;;9.77;100
44127;BME280;29786;50.798;7.302;2022-10-19T00:46:40;100350;;;9.75;100
44127;BME280;29786;50.798;7.302;2022-10-19T00:47:38;100350;;;9.74;100
44127;BME280;29786;50.798;7.302;2022-10-19T00:48:38;100350;;;9.78;100
44127;BME280;29786;50.798;7.302;2022-10-19T00:49:38;100360;;;9.76;100
44127;BME280;29786;50.798;7.302;2022-10-19T00:50:38;100360;;;9.7;100
44127;BME280;29786;50.798;7.302;2022-10-19T00:51:38;100370;;;9.68;100
44127;BME280;29786;50.798;7.302;2022-10-19T00:52:37;100370;;;9.67;100
44127;BME280;29786;50.798;7.302;2022-10-19T00:53:38;100370;;;9.57;100
44127;BME280;29786;50.798;7.302;2022-10-19T00:54:38;100370;;;9.46;100
44127;BME280;29786;50.798;7.302;2022-10-19T00:55:38;100370;;;9.22;100
44127;BME280;29786;50.798;7.302;2022-10-19T00:56:38;100370;;;9.18;100
44127;BME280;29786;50.798;7.302;2022-10-19T00:57:37;100370;;;9.1;100
44127;BME280;29786;50.798;7.302;2022-10-19T00:58:38;100370;;;9.02;100
44127;BME280;29786;50.798;7.302;2022-10-19T00:59:38;100370;;;8.97;100
44127;BME280;29786;50.798;7.302;2022-10-19T01:00:38;100370;;;8.93;100
44127;BME280;29786;50.798;7.302;2022-10-19T01:01:37;100370;;;9.07;100
44127;BME280;29786;50.798;7.302;2022-10-19T01:02:38;100360;;;9.07;100
44127;BME280;29786;50.798;7.302;2022-10-19T01:03:38;100370;;;9.12;100
44127;BME280;29786;50.798;7.302;2022-10-19T01:04:39;100370;;;9.06;100
44127;BME280;29786;50.798;7.302;2022-10-19T01:05:38;100370;;;9.1;100
44127;BME280;29786;50.798;7.302;2022-10-19T01:06:38;100360;;;9.07;100
44127;BME280;29786;50.798;7.302;2022-10-19T01:07:37;100370;;;9.1;100
44127;BME280;29786;50.798;7.302;2022-10-19T01:08:37;100370;;;9.16;100
44127;BME280;29786;50.798;7.302;2022-10-19T01:09:38;100370;;;9.22;100
44127;BME280;29786;50.798;7.302;2022-10-19T01:10:42;100370;;;9.27;100
44127;BME280;29786;50.798;7.302;2022-10-19T01:11:46;100360;;;9.26;100
44127;BME280;29786;50.798;7.302;2022-10-19T01:13:45;100370;;;9.32;100
44127;BME280;29786;50.798;7.302;2022-10-19T01:13:45;100370;;;9.18;100
44127;BME280;29786;50.798;7.302;2022-10-19T01:15:44;100360;;;9.18;100
44127;BME280;29786;50.798;7.302;2022-10-19T01:16:42;100360;;;9.21;100
44127;BME280;29786;50.798;7.302;2022-10-19T01:17:43;100360;;;9.2;100
44127;BME280;29786;50.798;7.302;2022-10-19T01:18:41;100360;;;9.28;100
44127;BME280;29786;50.798;7.302;2022-10-19T01:20:40;100360;;;9.2;100
44127;BME280;29786;50.798;7.302;2022-10-19T01:21:38;100360;;;9.04;100
44127;BME280;29786;50.798;7.302;2022-10-19T01:22:44;100360;;;8.92;100
44127;BME280;29786;50.798;7.302;2022-10-19T01:23:45;100370;;;8.83;100
44127;BME280;29786;50.798;7.302;2022-10-19T01:24:43;100360;;;8.82;100
44127;BME280;29786;50.798;7.302;2022-10-19T01:25:53;100360;;;8.85;100
44127;BME280;29786;50.798;7.302;2022-10-19T01:27:43;100360;;;8.96;100
44127;BME280;29786;50.798;7.302;2022-10-19T01:27:47;100360;;;8.87;100
44127;BME280;29786;50.798;7.302;2022-10-19T01:28:43;100370;;;8.99;100
44127;BME280;29786;50.798;7.302;2022-10-19T01:29:48;100370;;;8.92;100
44127;BME280;29786;50.798;7.302;2022-10-19T01:31:42;100370;;;8.88;100
44127;BME280;29786;50.798;7.302;2022-10-19T01:32:45;100360;;;8.89;100
44127;BME280;29786;50.798;7.302;2022-10-19T01:33:57;100360;;;8.92;100
44127;BME280;29786;50.798;7.302;2022-10-19T01:34:46;100360;;;8.92;100
44127;BME280;29786;50.798;7.302;2022-10-19T01:35:43;100360;;;8.89;100
44127;BME280;29786;50.798;7.302;2022-10-19T01:36:53;100360;;;8.88;100
44127;BME280;29786;50.798;7.302;2022-10-19T01:37:40;100360;;;8.91;100
44127;BME280;29786;50.798;7.302;2022-10-19T01:38:55;100360;;;8.89;100
44127;BME280;29786;50.798;7.302;2022-10-19T01:39:48;100360;;;8.97;100
44127;BME280;29786;50.798;7.302;2022-10-19T01:40:41;100350;;;8.99;100
44127;BME280;29786;50.798;7.302;2022-10-19T01:41:41;100350;;;9;100
44127;BME280;29786;50.798;7.302;2022-10-19T01:42:47;100350;;;8.97;100
44127;BME280;29786;50.798;7.302;2022-10-19T01:43:41;100350;;;8.89;100
44127;BME280;29786;50.798;7.302;2022-10-19T01:44:43;100350;;;8.92;100
44127;BME280;29786;50.798;7.302;2022-10-19T01:46:38;100350;;;8.92;100
44127;BME280;29786;50.798;7.302;2022-10-19T01:46:44;100350;;;8.89;100
44127;BME280;29786;50.798;7.302;2022-10-19T01:47:40;100350;;;8.91;100
44127;BME280;29786;50.798;7.302;2022-10-19T01:48:39;100350;;;8.89;100
44127;BME280;29786;50.798;7.302;2022-10-19T01:49:40;100340;;;8.89;100
44127;BME280;29786;50.798;7.302;2022-10-19T01:50:39;100350;;;8.84;100
44127;BME280;29786;50.798;7.302;2022-10-19T01:51:39;100340;;;8.84;100
44127;BME280;29786;50.798;7.302;2022-10-19T01:52:37;100340;;;8.95;100
44127;BME280;29786;50.798;7.302;2022-10-19T01:53:39;100340;;;8.93;100
44127;BME280;29786;50.798;7.302;2022-10-19T01:54:39;100340;;;8.93;100
44127;BME280;29786;50.798;7.302;2022-10-19T01:55:38;100330;;;8.99;100
44127;BME280;29786;50.798;7.302;2022-10-19T01:56:38;100330;;;9.02;100
44127;BME280;29786;50.798;7.302;2022-10-19T01:57:39;100330;;;9.06;100
44127;BME280;29786;50.798;7.302;2022-10-19T01:58:37;100330;;;8.97;100
44127;BME280;29786;50.798;7.302;2022-10-19T01:59:38;100330;;;8.97;100
44127;BME280;29786;50.798;7.302;2022-10-19T02:00:38;100320;;;9;100
44127;BME280;29786;50.798;7.302;2022-10-19T02:01:38;100320;;;8.91;100
44127;BME280;29786;50.798;7.302;2022-10-19T02:02:39;100320;;;8.89;100
44127;BME280;29786;50.798;7.302;2022-10-19T02:03:38;100320;;;8.85;100
44127;BME280;29786;50.798;7.302;2022-10-19T02:04:38;100320;;;8.79;100
44127;BME280;29786;50.798;7.302;2022-10-19T02:05:37;100310;;;8.79;100
44127;BME280;29786;50.798;7.302;2022-10-19T02:06:38;100310;;;8.78;100
44127;BME280;29786;50.798;7.302;2022-10-19T02:07:39;100310;;;8.77;100
44127;BME280;29786;50.798;7.302;2022-10-19T02:08:39;100310;;;8.68;100
44127;BME280;29786;50.798;7.302;2022-10-19T02:09:37;100310;;;8.68;100
44127;BME280;29786;50.798;7.302;2022-10-19T02:10:38;100310;;;8.68;100
44127;BME280;29786;50.798;7.302;2022-10-19T02:11:38;100310;;;8.72;100
44127;BME280;29786;50.798;7.302;2022-10-19T02:12:38;100310;;;8.68;100
44127;BME280;29786;50.798;7.302;2022-10-19T02:13:38;100310;;;8.6;100
44127;BME280;29786;50.798;7.302;2022-10-19T02:14:39;100310;;;8.56;100
44127;BME280;29786;50.798;7.302;2022-10-19T02:15:38;100310;;;8.54;100
44127;BME280;29786;50.798;7.302;2022-10-19T02:16:39;100310;;;8.46;100
44127;BME280;29786;50.798;7.302;2022-10-19T02:17:39;100310;;;8.46;100
44127;BME280;29786;50.798;7.302;2022-10-19T02:18:39;100310;;;8.47;100
44127;BME280;29786;50.798;7.302;2022-10-19T02:19:38;100310;;;8.41;100
44127;BME280;29786;50.798;7.302;2022-10-19T02:20:38;100300;;;8.51;100
44127;BME280;29786;50.798;7.302;2022-10-19T02:21:38;100300;;;8.52;100
44127;BME280;29786;50.798;7.302;2022-10-19T02:22:38;100310;;;8.47;100
44127;BME280;29786;50.798;7.302;2022-10-19T02:23:38;100310;;;8.43;100
44127;BME280;29786;50.798;7.302;2022-10-19T02:24:37;100310;;;8.46;100
44127;BME280;29786;50.798;7.302;2022-10-19T02:25:38;100310;;;8.49;100
44127;BME280;29786;50.798;7.302;2022-10-19T02:26:37;100300;;;8.39;100
44127;BME280;29786;50.798;7.302;2022-10-19T02:27:38;100310;;;8.33;100
44127;BME280;29786;50.798;7.302;2022-10-19T02:28:38;100310;;;8.24;100
44127;BME280;29786;50.798;7.302;2022-10-19T02:29:37;100310;;;8.24;100
44127;BME280;29786;50.798;7.302;2022-10-19T02:30:37;100300;;;8.26;100
44127;BME280;29786;50.798;7.302;2022-10-19T02:31:38;100310;;;8.29;100
44127;BME280;29786;50.798;7.302;2022-10-19T02:32:37;100300;;;8.29;100
44127;BME280;29786;50.798;7.302;2022-10-19T02:33:37;100300;;;8.3;100
44127;BME280;29786;50.798;7.302;2022-10-19T02:34:38;100300;;;8.35;100
44127;BME280;29786;50.798;7.302;2022-10-19T02:35:38;100300;;;8.33;100
44127;BME280;29786;50.798;7.302;2022-10-19T02:36:38;100310;;;8.28;100
44127;BME280;29786;50.798;7.302;2022-10-19T02:37:38;100300;;;8.37;100
44127;BME280;29786;50.798;7.302;2022-10-19T02:38:38;100310;;;8.42;100
44127;BME280;29786;50.798;7.302;2022-10-19T02:39:38;100310;;;8.37;100
44127;BME280;29786;50.798;7.302;2022-10-19T02:40:38;100300;;;8.34;100
44127;BME280;29786;50.798;7.302;2022-10-19T02:41:41;100300;;;8.35;100
44127;BME280;29786;50.798;7.302;2022-10-19T02:42:38;100300;;;8.39;100
44127;BME280;29786;50.798;7.302;2022-10-19T02:43:40;100300;;;8.47;100
44127;BME280;29786;50.798;7.302;2022-10-19T02:44:42;100300;;;8.58;100
44127;BME280;29786;50.798;7.302;2022-10-19T02:45:40;100300;;;8.49;100
44127;BME280;29786;50.798;7.302;2022-10-19T02:46:39;100300;;;8.58;100
44127;BME280;29786;50.798;7.302;2022-10-19T02:47:41;100300;;;8.56;100
44127;BME280;29786;50.798;7.302;2022-10-19T02:48:38;100300;;;8.45;100
44127;BME280;29786;50.798;7.302;2022-10-19T02:49:38;100300;;;8.42;100
44127;BME280;29786;50.798;7.302;2022-10-19T02:50:42;100290;;;8.39;100
44127;BME280;29786;50.798;7.302;2022-10-19T02:51:40;100300;;;8.35;100
44127;BME280;29786;50.798;7.302;2022-10-19T02:52:38;100300;;;8.39;100
44127;BME280;29786;50.798;7.302;2022-10-19T02:53:38;100300;;;8.42;100
44127;BME280;29786;50.798;7.302;2022-10-19T02:54:38;100300;;;8.39;100
44127;BME280;29786;50.798;7.302;2022-10-19T02:55:37;100290;;;8.33;100
44127;BME280;29786;50.798;7.302;2022-10-19T02:56:37;100300;;;8.3;100
44127;BME280;29786;50.798;7.302;2022-10-19T02:57:37;100300;;;8.32;100
44127;BME280;29786;50.798;7.302;2022-10-19T02:58:37;100290;;;8.32;100
44127;BME280;29786;50.798;7.302;2022-10-19T02:59:37;100290;;;8.38;100
44127;BME280;29786;50.798;7.302;2022-10-19T03:00:37;100290;;;8.42;100
44127;BME280;29786;50.798;7.302;2022-10-19T03:01:37;100290;;;8.41;100
44127;BME280;29786;50.798;7.302;2022-10-19T03:02:37;100290;;;8.35;100
44127;BME280;29786;50.798;7.302;2022-10-19T03:03:37;100290;;;8.33;100
44127;BME280;29786;50.798;7.302;2022-10-19T03:04:38;100290;;;8.31;100
44127;BME280;29786;50.798;7.302;2022-10-19T03:05:38;100290;;;8.31;100
44127;BME280;29786;50.798;7.302;2022-10-19T03:06:38;100290;;;8.26;100
44127;BME280;29786;50.798;7.302;2022-10-19T03:07:38;100300;;;8.18;100
44127;BME280;29786;50.798;7.302;2022-10-19T03:08:38;100300;;;8.2;100
44127;BME280;29786;50.798;7.302;2022-10-19T03:09:37;100290;;;8.21;100
44127;BME280;29786;50.798;7.302;2022-10-19T03:10:38;100290;;;8.22;100
44127;BME280;29786;50.798;7.302;2022-10-19T03:11:38;100300;;;8.24;100
44127;BME280;29786;50.798;7.302;2022-10-19T03:12:37;100300;;;8.32;100
44127;BME280;29786;50.798;7.302;2022-10-19T03:13:37;100290;;;8.37;100
44127;BME280;29786;50.798;7.302;2022-10-19T03:14:38;100290;;;8.38;100
44127;BME280;29786;50.798;7.302;2022-10-19T03:15:38;100300;;;8.41;100
44127;BME280;29786;50.798;7.302;2022-10-19T03:16:37;100300;;;8.39;100
44127;BME280;29786;50.798;7.302;2022-10-19T03:17:37;100290;;;8.35;100
44127;BME280;29786;50.798;7.302;2022-10-19T03:18:38;100300;;;8.42;100
44127;BME280;29786;50.798;7.302;2022-10-19T03:19:38;100290;;;8.43;100
44127;BME280;29786;50.798;7.302;2022-10-19T03:20:38;100290;;;8.46;100
44127;BME280;29786;50.798;7.302;2022-10-19T03:21:37;100290;;;8.47;100
44127;BME280;29786;50.798;7.302;2022-10-19T03:22:38;100290;;;8.55;100
44127;BME280;29786;50.798;7.302;2022-10-19T03:23:38;100280;;;8.53;100
44127;BME280;29786;50.798;7.302;2022-10-19T03:24:38;100290;;;8.52;100
44127;BME280;29786;50.798;7.302;2022-10-19T03:25:38;100290;;;8.56;100
44127;BME280;29786;50.798;7.302;2022-10-19T03:26:38;100280;;;8.56;100
44127;BME280;29786;50.798;7.302;2022-10-19T03:27:38;100290;;;8.5;100
44127;BME280;29786;50.798;7.302;2022-10-19T03:28:38;100280;;;8.52;100
44127;BME280;29786;50.798;7.302;2022-10-19T03:29:38;100280;;;8.47;100
44127;BME280;29786;50.798;7.302;2022-10-19T03:30:38;100280;;;8.43;100
44127;BME280;29786;50.798;7.302;2022-10-19T03:31:38;100280;;;8.38;100
44127;BME280;29786;50.798;7.302;2022-10-19T03:32:38;100280;;;8.32;100
44127;BME280;29786;50.798;7.302;2022-10-19T03:33:37;100280;;;8.2;100
44127;BME280;29786;50.798;7.302;2022-10-19T03:34:37;100280;;;8.18;100
44127;BME280;29786;50.798;7.302;2022-10-19T03:35:37;100280;;;8.07;100
44127;BME280;29786;50.798;7.302;2022-10-19T03:36:38;100280;;;8.06;100
44127;BME280;29786;50.798;7.302;2022-10-19T03:37:38;100280;;;8.07;100
44127;BME280;29786;50.798;7.302;2022-10-19T03:38:37;100280;;;8.02;100
44127;BME280;29786;50.798;7.302;2022-10-19T03:39:38;100280;;;8.03;100
44127;BME280;29786;50.798;7.302;2022-10-19T03:40:38;100280;;;8.06;100
44127;BME280;29786;50.798;7.302;2022-10-19T03:41:38;100270;;;8.05;100
44127;BME280;29786;50.798;7.302;2022-10-19T03:42:37;100270;;;8;100
44127;BME280;29786;50.798;7.302;2022-10-19T03:43:37;100270;;;8.06;100
44127;BME280;29786;50.798;7.302;2022-10-19T03:44:37;100270;;;8.04;100
44127;BME280;29786;50.798;7.302;2022-10-19T03:45:38;100270;;;8.06;100
44127;BME280;29786;50.798;7.302;2022-10-19T03:46:38;100270;;;8.07;100
44127;BME280;29786;50.798;7.302;2022-10-19T03:47:37;100270;;;8.13;100
44127;BME280;29786;50.798;7.302;2022-10-19T03:48:37;100270;;;8.12;100
44127;BME280;29786;50.798;7.302;2022-10-19T03:49:37;100270;;;8.12;100
44127;BME280;29786;50.798;7.302;2022-10-19T03:50:39;100270;;;8.17;100
44127;BME280;29786;50.798;7.302;2022-10-19T03:51:38;100270;;;8.14;100
44127;BME280;29786;50.798;7.302;2022-10-19T03:52:37;100280;;;8.13;100
44127;BME280;29786;50.798;7.302;2022-10-19T03:53:38;100280;;;8.2;100
44127;BME280;29786;50.798;7.302;2022-10-19T03:54:38;100280;;;8.21;100
44127;BME280;29786;50.798;7.302;2022-10-19T03:55:37;100280;;;8.14;100
44127;BME280;29786;50.798;7.302;2022-10-19T03:56:37;100280;;;8.07;100
44127;BME280;29786;50.798;7.302;2022-10-19T03:57:37;100280;;;8.05;100
44127;BME280;29786;50.798;7.302;2022-10-19T03:58:38;100280;;;8.06;100
44127;BME280;29786;50.798;7.302;2022-10-19T03:59:37;100280;;;8.05;100
44127;BME280;29786;50.798;7.302;2022-10-19T04:00:38;100280;;;8.05;100
44127;BME280;29786;50.798;7.302;2022-10-19T04:01:39;100280;;;8.05;100
44127;BME280;29786;50.798;7.302;2022-10-19T04:02:37;100280;;;8;100
44127;BME280;29786;50.798;7.302;2022-10-19T04:03:38;100280;;;7.96;100
44127;BME280;29786;50.798;7.302;2022-10-19T04:04:37;100280;;;7.91;100
44127;BME280;29786;50.798;7.302;2022-10-19T04:05:37;100280;;;7.89;100
44127;BME280;29786;50.798;7.302;2022-10-19T04:06:39;100280;;;7.9;100
44127;BME280;29786;50.798;7.302;2022-10-19T04:07:37;100280;;;7.91;100
44127;BME280;29786;50.798;7.302;2022-10-19T04:08:38;100280;;;7.89;100
44127;BME280;29786;50.798;7.302;2022-10-19T04:09:38;100280;;;7.91;100
44127;BME280;29786;50.798;7.302;2022-10-19T04:10:38;100280;;;7.92;100
44127;BME280;29786;50.798;7.302;2022-10-19T04:11:38;100280;;;7.93;100
44127;BME280;29786;50.798;7.302;2022-10-19T04:12:37;100280;;;7.93;100
44127;BME280;29786;50.798;7.302;2022-10-19T04:13:38;100280;;;7.93;100
44127;BME280;29786;50.798;7.302;2022-10-19T04:14:37;100270;;;7.98;100
44127;BME280;29786;50.798;7.302;2022-10-19T04:15:37;100280;;;8.03;100
44127;BME280;29786;50.798;7.302;2022-10-19T04:16:37;100280;;;8;100
44127;BME280;29786;50.798;7.302;2022-10-19T04:17:38;100280;;;7.93;100
44127;BME280;29786;50.798;7.302;2022-10-19T04:18:37;100270;;;7.87;100
44127;BME280;29786;50.798;7.302;2022-10-19T04:19:37;100280;;;7.84;100
44127;BME280;29786;50.798;7.302;2022-10-19T04:20:37;100280;;;7.82;100
44127;BME280;29786;50.798;7.302;2022-10-19T04:21:37;100280;;;7.72;100
44127;BME280;29786;50.798;7.302;2022-10-19T04:22:37;100280;;;7.58;100
44127;BME280;29786;50.798;7.302;2022-10-19T04:23:38;100280;;;7.51;100
44127;BME280;29786;50.798;7.302;2022-10-19T04:24:37;100290;;;7.51;100
44127;BME280;29786;50.798;7.302;2022-10-19T04:25:38;100290;;;7.43;100
44127;BME280;29786;50.798;7.302;2022-10-19T04:26:39;100290;;;7.42;100
44127;BME280;29786;50.798;7.302;2022-10-19T04:27:38;100280;;;7.43;100
44127;BME280;29786;50.798;7.302;2022-10-19T04:28:38;100280;;;7.47;100
44127;BME280;29786;50.798;7.302;2022-10-19T04:29:37;100280;;;7.51;100
44127;BME280;29786;50.798;7.302;2022-10-19T04:30:37;100280;;;7.53;100
44127;BME280;29786;50.798;7.302;2022-10-19T04:31:37;100280;;;7.55;100
44127;BME280;29786;50.798;7.302;2022-10-19T04:32:38;100280;;;7.47;100
44127;BME280;29786;50.798;7.302;2022-10-19T04:33:37;100280;;;7.57;100
44127;BME280;29786;50.798;7.302;2022-10-19T04:34:37;100280;;;7.57;100
44127;BME280;29786;50.798;7.302;2022-10-19T04:35:37;100280;;;7.52;100
44127;BME280;29786;50.798;7.302;2022-10-19T04:36:37;100280;;;7.54;100
44127;BME280;29786;50.798;7.302;2022-10-19T04:37:37;100280;;;7.56;100
44127;BME280;29786;50.798;7.302;2022-10-19T04:38:38;100290;;;7.55;100
44127;BME280;29786;50.798;7.302;2022-10-19T04:39:37;100290;;;7.54;100
44127;BME280;29786;50.798;7.302;2022-10-19T04:40:38;100290;;;7.51;100
44127;BME280;29786;50.798;7.302;2022-10-19T04:41:38;100290;;;7.54;100
44127;BME280;29786;50.798;7.302;2022-10-19T04:42:37;100290;;;7.54;100
44127;BME280;29786;50.798;7.302;2022-10-19T04:43:38;100290;;;7.48;100
44127;BME280;29786;50.798;7.302;2022-10-19T04:44:38;100290;;;7.51;100
44127;BME280;29786;50.798;7.302;2022-10-19T04:45:37;100290;;;7.47;100
44127;BME280;29786;50.798;7.302;2022-10-19T04:46:37;100290;;;7.47;100
44127;BME280;29786;50.798;7.302;2022-10-19T04:47:38;100300;;;7.5;100
44127;BME280;29786;50.798;7.302;2022-10-19T04:48:38;100300;;;7.5;100
44127;BME280;29786;50.798;7.302;2022-10-19T04:49:37;100290;;;7.53;100
44127;BME280;29786;50.798;7.302;2022-10-19T04:50:37;100290;;;7.5;100
44127;BME280;29786;50.798;7.302;2022-10-19T04:51:37;100290;;;7.44;100
44127;BME280;29786;50.798;7.302;2022-10-19T04:52:37;100290;;;7.45;100
44127;BME280;29786;50.798;7.302;2022-10-19T04:53:38;100300;;;7.38;100
44127;BME280;29786;50.798;7.302;2022-10-19T04:54:37;100290;;;7.36;100
44127;BME280;29786;50.798;7.302;2022-10-19T04:55:39;100290;;;7.29;100
44127;BME280;29786;50.798;7.302;2022-10-19T04:56:38;100290;;;7.27;100
44127;BME280;29786;50.798;7.302;2022-10-19T04:57:40;100300;;;7.36;100
44127;BME280;29786;50.798;7.302;2022-10-19T04:58:38;100290;;;7.34;100
44127;BME280;29786;50.798;7.302;2022-10-19T04:59:37;100300;;;7.3;100
44127;BME280;29786;50.798;7.302;2022-10-19T05:00:37;100290;;;7.36;100
44127;BME280;29786;50.798;7.302;2022-10-19T05:01:37;100290;;;7.27;100
44127;BME280;29786;50.798;7.302;2022-10-19T05:02:41;100290;;;7.23;100
44127;BME280;29786;50.798;7.302;2022-10-19T05:03:38;100290;;;7.24;100
44127;BME280;29786;50.798;7.302;2022-10-19T05:04:38;100290;;;7.28;100
44127;BME280;29786;50.798;7.302;2022-10-19T05:05:37;100290;;;7.28;100
44127;BME280;29786;50.798;7.302;2022-10-19T05:06:37;100290;;;7.32;100
44127;BME280;29786;50.798;7.302;2022-10-19T05:07:37;100290;;;7.33;100
44127;BME280;29786;50.798;7.302;2022-10-19T05:08:38;100290;;;7.39;100
44127;BME280;29786;50.798;7.302;2022-10-19T05:09:37;100280;;;7.35;100
44127;BME280;29786;50.798;7.302;2022-10-19T05:10:38;100280;;;7.39;100
44127;BME280;29786;50.798;7.302;2022-10-19T05:11:38;100280;;;7.41;100
44127;BME280;29786;50.798;7.302;2022-10-19T05:12:37;100280;;;7.32;100
44127;BME280;29786;50.798;7.302;2022-10-19T05:13:37;100270;;;7.25;100
44127;BME280;29786;50.798;7.302;2022-10-19T05:14:37;100280;;;7.27;100
44127;BME280;29786;50.798;7.302;2022-10-19T05:15:38;100280;;;7.32;100
44127;BME280;29786;50.798;7.302;2022-10-19T05:16:38;100280;;;7.33;100
44127;BME280;29786;50.798;7.302;2022-10-19T05:17:38;100280;;;7.34;100
44127;BME280;29786;50.798;7.302;2022-10-19T05:18:38;100280;;;7.34;100
44127;BME280;29786;50.798;7.302;2022-10-19T05:19:37;100270;;;7.35;100
44127;BME280;29786;50.798;7.302;2022-10-19T05:20:37;100270;;;7.37;100
44127;BME280;29786;50.798;7.302;2022-10-19T05:21:37;100270;;;7.37;100
44127;BME280;29786;50.798;7.302;2022-10-19T05:22:38;100270;;;7.35;100
44127;BME280;29786;50.798;7.302;2022-10-19T05:23:38;100260;;;7.39;100
44127;BME280;29786;50.798;7.302;2022-10-19T05:24:37;100270;;;7.33;100
44127;BME280;29786;50.798;7.302;2022-10-19T05:25:37;100260;;;7.3;100
44127;BME280;29786;50.798;7.302;2022-10-19T05:26:37;100270;;;7.3;100
44127;BME280;29786;50.798;7.302;2022-10-19T05:27:37;100260;;;7.44;100
44127;BME280;29786;50.798;7.302;2022-10-19T05:28:38;100260;;;7.53;100
44127;BME280;29786;50.798;7.302;2022-10-19T05:29:37;100260;;;7.48;100
44127;BME280;29786;50.798;7.302;2022-10-19T05:30:38;100260;;;7.49;100
44127;BME280;29786;50.798;7.302;2022-10-19T05:31:38;100260;;;7.56;100
44127;BME280;29786;50.798;7.302;2022-10-19T05:32:38;100260;;;7.63;100
44127;BME280;29786;50.798;7.302;2022-10-19T05:33:38;100260;;;7.65;100
44127;BME280;29786;50.798;7.302;2022-10-19T05:34:37;100260;;;7.73;100
44127;BME280;29786;50.798;7.302;2022-10-19T05:35:37;100260;;;7.78;100
44127;BME280;29786;50.798;7.302;2022-10-19T05:36:38;100260;;;7.87;100
44127;BME280;29786;50.798;7.302;2022-10-19T05:37:37;100260;;;7.87;100
44127;BME280;29786;50.798;7.302;2022-10-19T05:38:38;100260;;;7.85;100
44127;BME280;29786;50.798;7.302;2022-10-19T05:39:37;100260;;;7.93;100
44127;BME280;29786;50.798;7.302;2022-10-19T05:40:43;100260;;;7.96;100
44127;BME280;29786;50.798;7.302;2022-10-19T05:41:38;100260;;;7.93;100
44127;BME280;29786;50.798;7.302;2022-10-19T05:42:37;100260;;;7.98;100
44127;BME280;29786;50.798;7.302;2022-10-19T05:43:38;100270;;;7.97;100
44127;BME280;29786;50.798;7.302;2022-10-19T05:44:38;100260;;;8.03;100